sensor_id;sensor_type;location;lat;lon;timestamp;temperature;humidity
39493;DHT22;25176;51.060;3.720;2023-08-01T00:02:07;18.50;99.90
39493;DHT22;25176;51.060;3.720;2023-08-01T00:04:33;18.40;99.90
39493;DHT22;25176;51.060;3.720;2023-08-01T00:06:58;18.40;99.90
39493;DHT22;25176;51.060;3.720;2023-08-01T00:09:24;18.40;99.90
39493;DHT22;25176;51.060;3.720;2023-08-01T00:11:49;18.40;99.90
39493;DHT22;25176;51.060;3.720;2023-08-01T00:14:15;18.40;99.90
39493;DHT22;25176;51.060;3.720;2023-08-01T00:16:41;18.30;99.90
39493;DHT22;25176;51.060;3.720;2023-08-01T00:19:06;18.30;99.90
39493;DHT22;25176;51.060;3.720;2023-08-01T00:21:32;18.30;99.90
39493;DHT22;25176;51.060;3.720;2023-08-01T00:23:58;18.40;99.90
39493;DHT22;25176;51.060;3.720;2023-08-01T00:26:24;18.40;99.90
39493;DHT22;25176;51.060;3.720;2023-08-01T00:28:49;18.30;99.90
39493;DHT22;25176;51.060;3.720;2023-08-01T00:31:15;18.40;99.90
39493;DHT22;25176;51.060;3.720;2023-08-01T00:33:40;18.40;99.90
39493;DHT22;25176;51.060;3.720;2023-08-01T00:36:06;18.40;99.90
39493;DHT22;25176;51.060;3.720;2023-08-01T00:38:35;18.40;99.90
39493;DHT22;25176;51.060;3.720;2023-08-01T00:41:01;18.40;99.90
39493;DHT22;25176;51.060;3.720;2023-08-01T00:43:26;18.40;99.90
39493;DHT22;25176;51.060;3.720;2023-08-01T00:45:52;18.40;99.90
39493;DHT22;25176;51.060;3.720;2023-08-01T00:48:20;18.40;99.90
39493;DHT22;25176;51.060;3.720;2023-08-01T00:50:46;18.30;99.90
39493;DHT22;25176;51.060;3.720;2023-08-01T00:53:11;18.40;99.90
39493;DHT22;25176;51.060;3.720;2023-08-01T00:55:37;18.40;99.90
39493;DHT22;25176;51.060;3.720;2023-08-01T00:58:03;18.40;99.90
39493;DHT22;25176;51.060;3.720;2023-08-01T01:00:28;18.30;99.90
39493;DHT22;25176;51.060;3.720;2023-08-01T01:02:54;18.30;99.90
39493;DHT22;25176;51.060;3.720;2023-08-01T01:05:19;18.30;99.90
39493;DHT22;25176;51.060;3.720;2023-08-01T01:07:45;18.30;99.90
39493;DHT22;25176;51.060;3.720;2023-08-01T01:10:11;18.20;99.90
39493;DHT22;25176;51.060;3.720;2023-08-01T01:12:37;18.10;99.90
39493;DHT22;25176;51.060;3.720;2023-08-01T01:15:02;18.10;99.90
39493;DHT22;25176;51.060;3.720;2023-08-01T01:17:28;18.10;99.90
39493;DHT22;25176;51.060;3.720;2023-08-01T01:19:54;18.10;99.90
39493;DHT22;25176;51.060;3.720;2023-08-01T01:22:19;18.20;99.90
39493;DHT22;25176;51.060;3.720;2023-08-01T01:24:45;18.20;99.90
39493;DHT22;25176;51.060;3.720;2023-08-01T01:27:10;18.30;99.90
39493;DHT22;25176;51.060;3.720;2023-08-01T01:29:37;18.20;99.90
39493;DHT22;25176;51.060;3.720;2023-08-01T01:32:03;18.30;99.90
39493;DHT22;25176;51.060;3.720;2023-08-01T01:34:28;18.20;99.90
39493;DHT22;25176;51.060;3.720;2023-08-01T01:36:54;18.10;99.90
39493;DHT22;25176;51.060;3.720;2023-08-01T01:39:20;18.00;99.90
39493;DHT22;25176;51.060;3.720;2023-08-01T01:41:45;18.00;99.90
39493;DHT22;25176;51.060;3.720;2023-08-01T01:44:11;18.00;99.90
39493;DHT22;25176;51.060;3.720;2023-08-01T01:46:36;18.00;99.90
39493;DHT22;25176;51.060;3.720;2023-08-01T01:49:02;17.90;99.90
39493;DHT22;25176;51.060;3.720;2023-08-01T01:51:28;17.90;99.90
39493;DHT22;25176;51.060;3.720;2023-08-01T01:53:53;17.80;99.90
39493;DHT22;25176;51.060;3.720;2023-08-01T01:56:18;17.90;99.90
39493;DHT22;25176;51.060;3.720;2023-08-01T01:58:44;17.90;99.90
39493;DHT22;25176;51.060;3.720;2023-08-01T02:01:09;17.90;99.90
39493;DHT22;25176;51.060;3.720;2023-08-01T02:03:35;17.90;99.90
39493;DHT22;25176;51.060;3.720;2023-08-01T02:06:02;17.80;99.90
39493;DHT22;25176;51.060;3.720;2023-08-01T02:08:28;17.90;99.90
39493;DHT22;25176;51.060;3.720;2023-08-01T02:10:54;17.90;99.90
39493;DHT22;25176;51.060;3.720;2023-08-01T02:13:26;17.90;99.90
39493;DHT22;25176;51.060;3.720;2023-08-01T02:15:53;17.90;99.90
39493;DHT22;25176;51.060;3.720;2023-08-01T02:18:19;17.80;99.90
39493;DHT22;25176;51.060;3.720;2023-08-01T02:20:44;17.90;99.90
39493;DHT22;25176;51.060;3.720;2023-08-01T02:23:10;17.90;99.90
39493;DHT22;25176;51.060;3.720;2023-08-01T02:25:42;18.00;99.90
39493;DHT22;25176;51.060;3.720;2023-08-01T02:28:07;18.00;99.90
39493;DHT22;25176;51.060;3.720;2023-08-01T02:30:33;17.90;99.90
39493;DHT22;25176;51.060;3.720;2023-08-01T02:32:59;18.00;99.90
39493;DHT22;25176;51.060;3.720;2023-08-01T02:35:24;18.00;99.90
39493;DHT22;25176;51.060;3.720;2023-08-01T02:37:50;17.90;99.90
39493;DHT22;25176;51.060;3.720;2023-08-01T02:40:15;17.90;99.90
39493;DHT22;25176;51.060;3.720;2023-08-01T02:42:41;18.00;99.90
39493;DHT22;25176;51.060;3.720;2023-08-01T02:45:06;18.00;99.90
39493;DHT22;25176;51.060;3.720;2023-08-01T02:47:32;18.00;99.90
39493;DHT22;25176;51.060;3.720;2023-08-01T02:49:57;18.00;99.90
39493;DHT22;25176;51.060;3.720;2023-08-01T02:52:23;18.10;99.90
39493;DHT22;25176;51.060;3.720;2023-08-01T02:54:48;18.10;99.90
39493;DHT22;25176;51.060;3.720;2023-08-01T02:57:15;18.20;99.90
39493;DHT22;25176;51.060;3.720;2023-08-01T02:59:40;18.10;99.90
39493;DHT22;25176;51.060;3.720;2023-08-01T03:02:06;18.10;99.90
39493;DHT22;25176;51.060;3.720;2023-08-01T03:04:31;18.10;99.90
39493;DHT22;25176;51.060;3.720;2023-08-01T03:06:57;18.10;99.90
39493;DHT22;25176;51.060;3.720;2023-08-01T03:09:22;18.10;99.90
39493;DHT22;25176;51.060;3.720;2023-08-01T03:11:48;18.00;99.90
39493;DHT22;25176;51.060;3.720;2023-08-01T03:14:13;18.00;99.90
39493;DHT22;25176;51.060;3.720;2023-08-01T03:16:39;18.00;99.90
39493;DHT22;25176;51.060;3.720;2023-08-01T03:19:04;18.00;99.90
39493;DHT22;25176;51.060;3.720;2023-08-01T03:21:33;17.90;99.90
39493;DHT22;25176;51.060;3.720;2023-08-01T03:23:59;17.90;99.90
39493;DHT22;25176;51.060;3.720;2023-08-01T03:26:24;17.90;99.90
39493;DHT22;25176;51.060;3.720;2023-08-01T03:28:50;17.80;99.90
39493;DHT22;25176;51.060;3.720;2023-08-01T03:31:15;17.80;99.90
39493;DHT22;25176;51.060;3.720;2023-08-01T03:33:41;17.80;99.90
39493;DHT22;25176;51.060;3.720;2023-08-01T03:36:06;17.90;99.90
39493;DHT22;25176;51.060;3.720;2023-08-01T03:38:32;17.90;99.90
39493;DHT22;25176;51.060;3.720;2023-08-01T03:40:58;17.80;99.90
39493;DHT22;25176;51.060;3.720;2023-08-01T03:43:23;17.80;99.90
39493;DHT22;25176;51.060;3.720;2023-08-01T03:45:49;17.70;99.90
39493;DHT22;25176;51.060;3.720;2023-08-01T03:48:15;17.90;99.90
39493;DHT22;25176;51.060;3.720;2023-08-01T03:50:40;17.80;99.90
39493;DHT22;25176;51.060;3.720;2023-08-01T03:53:06;17.80;99.90
39493;DHT22;25176;51.060;3.720;2023-08-01T03:55:32;17.80;99.90
39493;DHT22;25176;51.060;3.720;2023-08-01T03:57:58;17.80;99.90
39493;DHT22;25176;51.060;3.720;2023-08-01T04:00:23;17.80;99.90
39493;DHT22;25176;51.060;3.720;2023-08-01T04:02:49;17.90;99.90
39493;DHT22;25176;51.060;3.720;2023-08-01T04:05:15;17.90;99.90
39493;DHT22;25176;51.060;3.720;2023-08-01T04:07:40;17.90;99.90
39493;DHT22;25176;51.060;3.720;2023-08-01T04:10:06;17.80;99.90
39493;DHT22;25176;51.060;3.720;2023-08-01T04:12:32;17.80;99.90
39493;DHT22;25176;51.060;3.720;2023-08-01T04:14:57;17.80;99.90
39493;DHT22;25176;51.060;3.720;2023-08-01T04:17:23;17.70;99.90
39493;DHT22;25176;51.060;3.720;2023-08-01T04:19:48;17.70;99.90
39493;DHT22;25176;51.060;3.720;2023-08-01T04:22:14;17.70;99.90
39493;DHT22;25176;51.060;3.720;2023-08-01T04:24:39;17.70;99.90
39493;DHT22;25176;51.060;3.720;2023-08-01T04:27:05;17.70;99.90
39493;DHT22;25176;51.060;3.720;2023-08-01T04:29:31;17.70;99.90
39493;DHT22;25176;51.060;3.720;2023-08-01T04:31:56;17.70;99.90
39493;DHT22;25176;51.060;3.720;2023-08-01T04:34:22;17.60;99.90
39493;DHT22;25176;51.060;3.720;2023-08-01T04:36:47;17.60;99.90
39493;DHT22;25176;51.060;3.720;2023-08-01T04:39:13;17.60;99.90
39493;DHT22;25176;51.060;3.720;2023-08-01T04:41:38;17.60;99.90
39493;DHT22;25176;51.060;3.720;2023-08-01T04:44:04;17.60;99.90
39493;DHT22;25176;51.060;3.720;2023-08-01T04:46:29;17.70;99.90
39493;DHT22;25176;51.060;3.720;2023-08-01T04:48:55;17.80;99.90
39493;DHT22;25176;51.060;3.720;2023-08-01T04:51:20;17.80;99.90
39493;DHT22;25176;51.060;3.720;2023-08-01T04:53:46;17.80;99.90
39493;DHT22;25176;51.060;3.720;2023-08-01T04:56:11;17.90;99.90
39493;DHT22;25176;51.060;3.720;2023-08-01T04:58:37;17.90;99.90
39493;DHT22;25176;51.060;3.720;2023-08-01T05:01:02;17.90;99.90
39493;DHT22;25176;51.060;3.720;2023-08-01T05:03:28;18.00;99.90
39493;DHT22;25176;51.060;3.720;2023-08-01T05:05:53;18.00;99.90
39493;DHT22;25176;51.060;3.720;2023-08-01T05:08:18;18.10;99.90
39493;DHT22;25176;51.060;3.720;2023-08-01T05:10:44;18.10;99.90
39493;DHT22;25176;51.060;3.720;2023-08-01T05:13:09;18.20;99.90
39493;DHT22;25176;51.060;3.720;2023-08-01T05:15:35;18.20;99.90
39493;DHT22;25176;51.060;3.720;2023-08-01T05:18:00;18.10;99.90
39493;DHT22;25176;51.060;3.720;2023-08-01T05:20:26;18.10;99.90
39493;DHT22;25176;51.060;3.720;2023-08-01T05:22:58;18.20;99.90
39493;DHT22;25176;51.060;3.720;2023-08-01T05:25:24;18.10;99.90
39493;DHT22;25176;51.060;3.720;2023-08-01T05:27:50;18.00;99.90
39493;DHT22;25176;51.060;3.720;2023-08-01T05:30:15;18.10;99.90
39493;DHT22;25176;51.060;3.720;2023-08-01T05:32:41;18.00;99.90
39493;DHT22;25176;51.060;3.720;2023-08-01T05:35:08;18.10;99.90
39493;DHT22;25176;51.060;3.720;2023-08-01T05:37:34;18.00;99.90
39493;DHT22;25176;51.060;3.720;2023-08-01T05:40:00;18.20;99.90
39493;DHT22;25176;51.060;3.720;2023-08-01T05:42:25;18.10;99.90
39493;DHT22;25176;51.060;3.720;2023-08-01T05:44:51;17.90;99.90
39493;DHT22;25176;51.060;3.720;2023-08-01T05:47:16;17.90;99.90
39493;DHT22;25176;51.060;3.720;2023-08-01T05:49:42;18.00;99.90
39493;DHT22;25176;51.060;3.720;2023-08-01T05:52:07;17.90;99.90
39493;DHT22;25176;51.060;3.720;2023-08-01T05:54:33;18.10;99.90
39493;DHT22;25176;51.060;3.720;2023-08-01T05:56:58;18.10;99.90
39493;DHT22;25176;51.060;3.720;2023-08-01T05:59:23;18.10;99.90
39493;DHT22;25176;51.060;3.720;2023-08-01T06:01:49;18.20;99.90
39493;DHT22;25176;51.060;3.720;2023-08-01T06:04:15;18.10;99.90
39493;DHT22;25176;51.060;3.720;2023-08-01T06:06:40;18.20;99.90
39493;DHT22;25176;51.060;3.720;2023-08-01T06:09:06;18.30;99.90
39493;DHT22;25176;51.060;3.720;2023-08-01T06:11:31;18.40;99.90
39493;DHT22;25176;51.060;3.720;2023-08-01T06:13:59;18.50;99.90
39493;DHT22;25176;51.060;3.720;2023-08-01T06:16:24;18.50;99.90
39493;DHT22;25176;51.060;3.720;2023-08-01T06:18:50;18.50;99.90
39493;DHT22;25176;51.060;3.720;2023-08-01T06:21:15;18.60;99.90
39493;DHT22;25176;51.060;3.720;2023-08-01T06:23:41;18.70;99.90
39493;DHT22;25176;51.060;3.720;2023-08-01T06:26:06;19.10;99.90
39493;DHT22;25176;51.060;3.720;2023-08-01T06:28:31;19.30;99.90
39493;DHT22;25176;51.060;3.720;2023-08-01T06:30:57;19.40;99.90
39493;DHT22;25176;51.060;3.720;2023-08-01T06:33:22;19.40;99.90
39493;DHT22;25176;51.060;3.720;2023-08-01T06:35:49;19.50;99.90
39493;DHT22;25176;51.060;3.720;2023-08-01T06:38:14;19.70;99.90
39493;DHT22;25176;51.060;3.720;2023-08-01T06:40:40;19.70;99.90
39493;DHT22;25176;51.060;3.720;2023-08-01T06:43:05;19.60;99.90
39493;DHT22;25176;51.060;3.720;2023-08-01T06:45:31;19.70;99.90
39493;DHT22;25176;51.060;3.720;2023-08-01T06:47:56;19.90;99.90
39493;DHT22;25176;51.060;3.720;2023-08-01T06:50:22;19.70;99.90
39493;DHT22;25176;51.060;3.720;2023-08-01T06:52:47;19.90;99.90
39493;DHT22;25176;51.060;3.720;2023-08-01T06:55:13;20.00;99.90
39493;DHT22;25176;51.060;3.720;2023-08-01T06:57:38;20.20;99.90
39493;DHT22;25176;51.060;3.720;2023-08-01T07:00:04;20.20;99.90
39493;DHT22;25176;51.060;3.720;2023-08-01T07:02:30;20.20;99.90
39493;DHT22;25176;51.060;3.720;2023-08-01T07:04:55;20.30;99.90
39493;DHT22;25176;51.060;3.720;2023-08-01T07:07:21;20.60;99.90
39493;DHT22;25176;51.060;3.720;2023-08-01T07:09:46;20.60;99.90
39493;DHT22;25176;51.060;3.720;2023-08-01T07:12:12;20.80;99.90
39493;DHT22;25176;51.060;3.720;2023-08-01T07:14:38;20.70;99.90
39493;DHT22;25176;51.060;3.720;2023-08-01T07:17:04;20.80;99.90
39493;DHT22;25176;51.060;3.720;2023-08-01T07:19:29;20.60;99.90
39493;DHT22;25176;51.060;3.720;2023-08-01T07:21:55;20.70;99.90
39493;DHT22;25176;51.060;3.720;2023-08-01T07:24:20;21.30;99.90
39493;DHT22;25176;51.060;3.720;2023-08-01T07:26:46;21.50;99.90
39493;DHT22;25176;51.060;3.720;2023-08-01T07:29:11;21.70;99.90
39493;DHT22;25176;51.060;3.720;2023-08-01T07:31:41;21.40;99.90
39493;DHT22;25176;51.060;3.720;2023-08-01T07:34:06;21.50;99.90
39493;DHT22;25176;51.060;3.720;2023-08-01T07:36:34;21.50;99.90
39493;DHT22;25176;51.060;3.720;2023-08-01T07:38:59;22.00;99.90
39493;DHT22;25176;51.060;3.720;2023-08-01T07:41:25;23.10;98.70
39493;DHT22;25176;51.060;3.720;2023-08-01T07:43:50;24.40;96.20
39493;DHT22;25176;51.060;3.720;2023-08-01T07:46:15;24.90;94.70
39493;DHT22;25176;51.060;3.720;2023-08-01T07:48:41;25.20;93.50
39493;DHT22;25176;51.060;3.720;2023-08-01T07:51:06;25.30;92.50
39493;DHT22;25176;51.060;3.720;2023-08-01T07:53:36;26.20;91.70
39493;DHT22;25176;51.060;3.720;2023-08-01T07:56:01;26.30;91.00
39493;DHT22;25176;51.060;3.720;2023-08-01T07:58:28;25.90;90.40
39493;DHT22;25176;51.060;3.720;2023-08-01T08:00:53;25.10;91.00
39493;DHT22;25176;51.060;3.720;2023-08-01T08:03:19;25.80;90.70
39493;DHT22;25176;51.060;3.720;2023-08-01T08:05:47;25.80;90.00
39493;DHT22;25176;51.060;3.720;2023-08-01T08:08:13;25.50;90.10
39493;DHT22;25176;51.060;3.720;2023-08-01T08:10:38;25.20;90.00
39493;DHT22;25176;51.060;3.720;2023-08-01T08:13:04;25.20;90.30
39493;DHT22;25176;51.060;3.720;2023-08-01T08:15:29;25.70;89.40
39493;DHT22;25176;51.060;3.720;2023-08-01T08:17:59;26.30;87.30
39493;DHT22;25176;51.060;3.720;2023-08-01T08:20:25;25.80;86.70
39493;DHT22;25176;51.060;3.720;2023-08-01T08:22:50;24.90;88.20
39493;DHT22;25176;51.060;3.720;2023-08-01T08:25:16;25.40;87.30
39493;DHT22;25176;51.060;3.720;2023-08-01T08:27:41;26.10;86.30
39493;DHT22;25176;51.060;3.720;2023-08-01T08:30:07;27.40;82.60
39493;DHT22;25176;51.060;3.720;2023-08-01T08:32:32;28.60;80.30
39493;DHT22;25176;51.060;3.720;2023-08-01T08:34:58;28.40;76.90
39493;DHT22;25176;51.060;3.720;2023-08-01T08:37:23;28.40;77.30
39493;DHT22;25176;51.060;3.720;2023-08-01T08:39:49;28.10;77.60
39493;DHT22;25176;51.060;3.720;2023-08-01T08:42:17;27.00;79.90
39493;DHT22;25176;51.060;3.720;2023-08-01T08:44:43;25.90;82.40
39493;DHT22;25176;51.060;3.720;2023-08-01T08:47:08;25.70;85.20
39493;DHT22;25176;51.060;3.720;2023-08-01T08:49:35;25.90;82.00
39493;DHT22;25176;51.060;3.720;2023-08-01T08:52:02;25.60;82.90
39493;DHT22;25176;51.060;3.720;2023-08-01T08:54:28;25.40;83.60
39493;DHT22;25176;51.060;3.720;2023-08-01T08:56:55;24.90;85.70
39493;DHT22;25176;51.060;3.720;2023-08-01T08:59:21;25.20;85.30
39493;DHT22;25176;51.060;3.720;2023-08-01T09:01:46;26.90;84.40
39493;DHT22;25176;51.060;3.720;2023-08-01T09:04:12;28.50;77.30
39493;DHT22;25176;51.060;3.720;2023-08-01T09:06:40;30.50;74.70
39493;DHT22;25176;51.060;3.720;2023-08-01T09:09:09;32.20;70.20
39493;DHT22;25176;51.060;3.720;2023-08-01T09:11:45;32.10;67.50
39493;DHT22;25176;51.060;3.720;2023-08-01T09:14:11;30.90;68.90
39493;DHT22;25176;51.060;3.720;2023-08-01T09:16:36;30.70;67.40
39493;DHT22;25176;51.060;3.720;2023-08-01T09:19:02;29.30;67.40
39493;DHT22;25176;51.060;3.720;2023-08-01T09:21:30;29.50;66.40
39493;DHT22;25176;51.060;3.720;2023-08-01T09:23:58;29.70;65.60
39493;DHT22;25176;51.060;3.720;2023-08-01T09:26:32;29.50;66.00
39493;DHT22;25176;51.060;3.720;2023-08-01T09:28:58;29.00;67.20
39493;DHT22;25176;51.060;3.720;2023-08-01T09:31:27;29.30;68.10
39493;DHT22;25176;51.060;3.720;2023-08-01T09:33:52;29.80;65.70
39493;DHT22;25176;51.060;3.720;2023-08-01T09:36:22;28.60;67.80
39493;DHT22;25176;51.060;3.720;2023-08-01T09:38:47;28.00;68.70
39493;DHT22;25176;51.060;3.720;2023-08-01T09:41:17;27.30;68.90
39493;DHT22;25176;51.060;3.720;2023-08-01T09:43:45;27.60;68.70
39493;DHT22;25176;51.060;3.720;2023-08-01T09:46:11;28.40;67.40
39493;DHT22;25176;51.060;3.720;2023-08-01T09:48:36;28.10;66.60
39493;DHT22;25176;51.060;3.720;2023-08-01T09:51:06;28.50;66.80
39493;DHT22;25176;51.060;3.720;2023-08-01T09:53:32;29.30;66.10
39493;DHT22;25176;51.060;3.720;2023-08-01T09:55:59;29.50;65.30
39493;DHT22;25176;51.060;3.720;2023-08-01T09:58:25;30.00;64.90
39493;DHT22;25176;51.060;3.720;2023-08-01T10:00:51;31.90;62.10
39493;DHT22;25176;51.060;3.720;2023-08-01T10:03:17;31.40;62.30
39493;DHT22;25176;51.060;3.720;2023-08-01T10:05:43;31.60;62.30
39493;DHT22;25176;51.060;3.720;2023-08-01T10:08:09;32.30;60.60
39493;DHT22;25176;51.060;3.720;2023-08-01T10:10:34;32.50;59.20
39493;DHT22;25176;51.060;3.720;2023-08-01T10:13:00;33.80;58.30
39493;DHT22;25176;51.060;3.720;2023-08-01T10:15:26;36.40;55.50
39493;DHT22;25176;51.060;3.720;2023-08-01T10:17:53;36.80;53.50
39493;DHT22;25176;51.060;3.720;2023-08-01T10:20:19;35.80;53.30
39493;DHT22;25176;51.060;3.720;2023-08-01T10:22:45;34.50;54.80
39493;DHT22;25176;51.060;3.720;2023-08-01T10:25:13;33.50;55.30
39493;DHT22;25176;51.060;3.720;2023-08-01T10:27:38;32.30;57.10
39493;DHT22;25176;51.060;3.720;2023-08-01T10:30:06;31.20;58.60
39493;DHT22;25176;51.060;3.720;2023-08-01T10:32:34;30.80;59.50
39493;DHT22;25176;51.060;3.720;2023-08-01T10:35:00;30.60;58.30
39493;DHT22;25176;51.060;3.720;2023-08-01T10:37:26;31.10;58.00
39493;DHT22;25176;51.060;3.720;2023-08-01T10:39:58;31.60;56.70
39493;DHT22;25176;51.060;3.720;2023-08-01T10:42:23;31.30;57.20
39493;DHT22;25176;51.060;3.720;2023-08-01T10:44:50;32.10;56.70
39493;DHT22;25176;51.060;3.720;2023-08-01T10:47:15;32.80;56.30
39493;DHT22;25176;51.060;3.720;2023-08-01T10:49:50;32.30;55.90
39493;DHT22;25176;51.060;3.720;2023-08-01T10:54:41;33.70;54.30
39493;DHT22;25176;51.060;3.720;2023-08-01T10:57:06;33.30;53.60
39493;DHT22;25176;51.060;3.720;2023-08-01T10:59:33;32.40;54.60
39493;DHT22;25176;51.060;3.720;2023-08-01T11:01:59;31.30;56.00
39493;DHT22;25176;51.060;3.720;2023-08-01T11:04:25;29.50;58.20
39493;DHT22;25176;51.060;3.720;2023-08-01T11:06:52;28.30;60.70
39493;DHT22;25176;51.060;3.720;2023-08-01T11:09:21;27.80;62.40
39493;DHT22;25176;51.060;3.720;2023-08-01T11:11:48;27.20;63.50
39493;DHT22;25176;51.060;3.720;2023-08-01T11:14:14;27.10;63.40
39493;DHT22;25176;51.060;3.720;2023-08-01T11:16:40;27.30;63.70
39493;DHT22;25176;51.060;3.720;2023-08-01T11:19:06;27.00;64.20
39493;DHT22;25176;51.060;3.720;2023-08-01T11:21:31;26.40;64.20
39493;DHT22;25176;51.060;3.720;2023-08-01T11:24:05;26.30;64.50
39493;DHT22;25176;51.060;3.720;2023-08-01T11:26:31;26.00;64.60
39493;DHT22;25176;51.060;3.720;2023-08-01T11:29:00;25.50;65.60
39493;DHT22;25176;51.060;3.720;2023-08-01T11:31:26;25.50;66.70
39493;DHT22;25176;51.060;3.720;2023-08-01T11:33:55;25.80;65.60
39493;DHT22;25176;51.060;3.720;2023-08-01T11:36:21;25.90;65.60
39493;DHT22;25176;51.060;3.720;2023-08-01T11:38:47;25.60;66.40
39493;DHT22;25176;51.060;3.720;2023-08-01T11:41:14;25.30;66.10
39493;DHT22;25176;51.060;3.720;2023-08-01T11:43:43;25.40;67.20
39493;DHT22;25176;51.060;3.720;2023-08-01T11:46:09;25.40;67.10
39493;DHT22;25176;51.060;3.720;2023-08-01T11:48:35;25.30;66.70
39493;DHT22;25176;51.060;3.720;2023-08-01T11:51:01;25.50;67.20
39493;DHT22;25176;51.060;3.720;2023-08-01T11:53:26;25.40;66.80
39493;DHT22;25176;51.060;3.720;2023-08-01T11:55:53;25.30;66.70
39493;DHT22;25176;51.060;3.720;2023-08-01T11:58:31;25.40;67.20
39493;DHT22;25176;51.060;3.720;2023-08-01T12:03:29;24.90;68.30
39493;DHT22;25176;51.060;3.720;2023-08-01T12:06:06;24.90;69.20
39493;DHT22;25176;51.060;3.720;2023-08-01T12:08:37;24.80;69.30
39493;DHT22;25176;51.060;3.720;2023-08-01T12:11:03;25.00;68.30
39493;DHT22;25176;51.060;3.720;2023-08-01T12:13:28;24.80;68.60
39493;DHT22;25176;51.060;3.720;2023-08-01T12:15:55;24.40;69.20
39493;DHT22;25176;51.060;3.720;2023-08-01T12:18:24;24.30;69.90
39493;DHT22;25176;51.060;3.720;2023-08-01T12:20:49;24.20;70.40
39493;DHT22;25176;51.060;3.720;2023-08-01T12:23:15;24.30;70.70
39493;DHT22;25176;51.060;3.720;2023-08-01T12:25:40;24.50;70.20
39493;DHT22;25176;51.060;3.720;2023-08-01T12:28:06;24.60;70.50
39493;DHT22;25176;51.060;3.720;2023-08-01T12:30:31;24.70;70.20
39493;DHT22;25176;51.060;3.720;2023-08-01T12:32:57;24.80;70.90
39493;DHT22;25176;51.060;3.720;2023-08-01T12:35:22;24.80;70.40
39493;DHT22;25176;51.060;3.720;2023-08-01T12:37:48;24.80;69.90
39493;DHT22;25176;51.060;3.720;2023-08-01T12:40:13;24.90;70.00
39493;DHT22;25176;51.060;3.720;2023-08-01T12:42:39;24.90;70.40
39493;DHT22;25176;51.060;3.720;2023-08-01T12:45:04;25.00;70.00
39493;DHT22;25176;51.060;3.720;2023-08-01T12:47:30;25.00;70.40
39493;DHT22;25176;51.060;3.720;2023-08-01T12:49:56;24.90;70.50
39493;DHT22;25176;51.060;3.720;2023-08-01T12:52:22;24.80;70.80
39493;DHT22;25176;51.060;3.720;2023-08-01T12:54:48;24.70;71.20
39493;DHT22;25176;51.060;3.720;2023-08-01T12:57:13;24.90;71.20
39493;DHT22;25176;51.060;3.720;2023-08-01T12:59:39;25.10;70.70
39493;DHT22;25176;51.060;3.720;2023-08-01T13:02:05;25.50;70.20
39493;DHT22;25176;51.060;3.720;2023-08-01T13:04:33;25.80;69.90
39493;DHT22;25176;51.060;3.720;2023-08-01T13:06:59;25.50;68.20
39493;DHT22;25176;51.060;3.720;2023-08-01T13:09:24;25.40;68.70
39493;DHT22;25176;51.060;3.720;2023-08-01T13:11:50;25.40;67.70
39493;DHT22;25176;51.060;3.720;2023-08-01T13:14:15;25.20;68.00
39493;DHT22;25176;51.060;3.720;2023-08-01T13:16:41;24.70;69.50
39493;DHT22;25176;51.060;3.720;2023-08-01T13:19:06;24.30;70.30
39493;DHT22;25176;51.060;3.720;2023-08-01T13:21:33;23.90;71.20
39493;DHT22;25176;51.060;3.720;2023-08-01T13:23:59;23.60;72.90
39493;DHT22;25176;51.060;3.720;2023-08-01T13:26:29;23.40;74.80
39493;DHT22;25176;51.060;3.720;2023-08-01T13:28:55;23.30;76.50
39493;DHT22;25176;51.060;3.720;2023-08-01T13:31:20;23.20;76.50
39493;DHT22;25176;51.060;3.720;2023-08-01T13:33:46;23.00;76.40
39493;DHT22;25176;51.060;3.720;2023-08-01T13:36:11;23.00;77.00
39493;DHT22;25176;51.060;3.720;2023-08-01T13:38:37;22.80;77.40
39493;DHT22;25176;51.060;3.720;2023-08-01T13:41:02;22.80;77.10
39493;DHT22;25176;51.060;3.720;2023-08-01T13:43:28;22.90;77.10
39493;DHT22;25176;51.060;3.720;2023-08-01T13:45:53;23.00;77.00
39493;DHT22;25176;51.060;3.720;2023-08-01T13:48:19;23.00;76.00
39493;DHT22;25176;51.060;3.720;2023-08-01T13:50:44;23.10;76.00
39493;DHT22;25176;51.060;3.720;2023-08-01T13:53:10;23.00;76.00
39493;DHT22;25176;51.060;3.720;2023-08-01T13:55:39;22.90;75.80
39493;DHT22;25176;51.060;3.720;2023-08-01T13:58:05;22.80;77.00
39493;DHT22;25176;51.060;3.720;2023-08-01T14:00:31;22.80;77.10
39493;DHT22;25176;51.060;3.720;2023-08-01T14:02:56;22.70;77.30
39493;DHT22;25176;51.060;3.720;2023-08-01T14:05:25;22.60;77.30
39493;DHT22;25176;51.060;3.720;2023-08-01T14:07:51;22.50;77.90
39493;DHT22;25176;51.060;3.720;2023-08-01T14:10:17;22.60;78.00
39493;DHT22;25176;51.060;3.720;2023-08-01T14:12:43;22.70;77.50
39493;DHT22;25176;51.060;3.720;2023-08-01T14:15:08;22.80;77.90
39493;DHT22;25176;51.060;3.720;2023-08-01T14:17:34;23.10;76.70
39493;DHT22;25176;51.060;3.720;2023-08-01T14:20:00;23.10;76.70
39493;DHT22;25176;51.060;3.720;2023-08-01T14:22:25;23.30;76.10
39493;DHT22;25176;51.060;3.720;2023-08-01T14:24:50;23.20;76.10
39493;DHT22;25176;51.060;3.720;2023-08-01T14:27:16;23.30;76.10
39493;DHT22;25176;51.060;3.720;2023-08-01T14:29:41;23.20;76.50
39493;DHT22;25176;51.060;3.720;2023-08-01T14:32:07;23.20;76.40
39493;DHT22;25176;51.060;3.720;2023-08-01T14:34:32;23.30;76.60
39493;DHT22;25176;51.060;3.720;2023-08-01T14:36:58;23.20;76.10
39493;DHT22;25176;51.060;3.720;2023-08-01T14:39:23;23.10;76.70
39493;DHT22;25176;51.060;3.720;2023-08-01T14:41:49;22.90;76.70
39493;DHT22;25176;51.060;3.720;2023-08-01T14:44:15;22.90;76.50
39493;DHT22;25176;51.060;3.720;2023-08-01T14:46:40;22.80;77.10
39493;DHT22;25176;51.060;3.720;2023-08-01T14:49:06;23.00;77.40
39493;DHT22;25176;51.060;3.720;2023-08-01T14:51:31;23.10;77.00
39493;DHT22;25176;51.060;3.720;2023-08-01T14:53:57;23.00;76.60
39493;DHT22;25176;51.060;3.720;2023-08-01T14:56:22;23.00;77.00
39493;DHT22;25176;51.060;3.720;2023-08-01T14:58:48;22.90;77.00
39493;DHT22;25176;51.060;3.720;2023-08-01T15:01:14;22.80;77.30
39493;DHT22;25176;51.060;3.720;2023-08-01T15:03:42;22.90;77.20
39493;DHT22;25176;51.060;3.720;2023-08-01T15:06:11;22.80;77.20
39493;DHT22;25176;51.060;3.720;2023-08-01T15:08:37;22.80;78.30
39493;DHT22;25176;51.060;3.720;2023-08-01T15:11:04;22.80;78.20
39493;DHT22;25176;51.060;3.720;2023-08-01T15:13:30;22.70;77.90
39493;DHT22;25176;51.060;3.720;2023-08-01T15:15:55;22.70;78.10
39493;DHT22;25176;51.060;3.720;2023-08-01T15:18:21;22.80;78.00
39493;DHT22;25176;51.060;3.720;2023-08-01T15:20:46;22.90;78.00
39493;DHT22;25176;51.060;3.720;2023-08-01T15:23:11;22.90;78.10
39493;DHT22;25176;51.060;3.720;2023-08-01T15:25:37;22.90;77.70
39493;DHT22;25176;51.060;3.720;2023-08-01T15:28:03;22.90;78.10